sensor_id;sensor_type;location;lat;lon;timestamp;temperature;humidity
32293;DHT22;43233;48.608;8.838;2022-12-07T00:03:36;2.90;82.90
32293;DHT22;43233;48.608;8.838;2022-12-07T00:06:02;2.90;83.00
32293;DHT22;43233;48.608;8.838;2022-12-07T00:08:28;2.80;83.40
32293;DHT22;43233;48.608;8.838;2022-12-07T00:10:55;2.80;84.00
32293;DHT22;43233;48.608;8.838;2022-12-07T00:13:20;2.70;84.00
32293;DHT22;43233;48.608;8.838;2022-12-07T00:15:46;2.70;84.10
32293;DHT22;43233;48.608;8.838;2022-12-07T00:18:12;2.80;84.40
32293;DHT22;43233;48.608;8.838;2022-12-07T00:20:37;2.70;83.70
32293;DHT22;43233;48.608;8.838;2022-12-07T00:23:03;2.70;84.20
32293;DHT22;43233;48.608;8.838;2022-12-07T00:25:30;2.80;84.30
32293;DHT22;43233;48.608;8.838;2022-12-07T00:27:55;2.80;84.00
32293;DHT22;43233;48.608;8.838;2022-12-07T00:30:23;2.90;83.80
32293;DHT22;43233;48.608;8.838;2022-12-07T00:32:48;2.80;83.80
32293;DHT22;43233;48.608;8.838;2022-12-07T00:35:14;2.80;83.30
32293;DHT22;43233;48.608;8.838;2022-12-07T00:37:40;2.80;83.90
32293;DHT22;43233;48.608;8.838;2022-12-07T00:40:06;2.80;84.40
32293;DHT22;43233;48.608;8.838;2022-12-07T00:42:32;2.80;84.00
32293;DHT22;43233;48.608;8.838;2022-12-07T00:44:58;2.80;84.00
32293;DHT22;43233;48.608;8.838;2022-12-07T00:47:23;2.90;83.90
32293;DHT22;43233;48.608;8.838;2022-12-07T00:49:49;2.90;83.50
32293;DHT22;43233;48.608;8.838;2022-12-07T00:52:15;2.90;83.80
32293;DHT22;43233;48.608;8.838;2022-12-07T00:54:40;2.90;83.70
32293;DHT22;43233;48.608;8.838;2022-12-07T00:57:06;2.90;83.70
32293;DHT22;43233;48.608;8.838;2022-12-07T00:59:32;2.90;83.60
32293;DHT22;43233;48.608;8.838;2022-12-07T01:01:57;3.00;83.40
32293;DHT22;43233;48.608;8.838;2022-12-07T01:04:23;2.90;83.10
32293;DHT22;43233;48.608;8.838;2022-12-07T01:06:48;3.00;83.20
32293;DHT22;43233;48.608;8.838;2022-12-07T01:09:14;3.00;83.00
32293;DHT22;43233;48.608;8.838;2022-12-07T01:11:40;3.00;82.90
32293;DHT22;43233;48.608;8.838;2022-12-07T01:14:06;3.00;82.90
32293;DHT22;43233;48.608;8.838;2022-12-07T01:16:32;3.00;83.00
32293;DHT22;43233;48.608;8.838;2022-12-07T01:18:59;3.00;82.90
32293;DHT22;43233;48.608;8.838;2022-12-07T01:21:31;3.10;83.00
32293;DHT22;43233;48.608;8.838;2022-12-07T01:24:02;3.10;83.00
32293;DHT22;43233;48.608;8.838;2022-12-07T01:26:28;3.10;82.80
32293;DHT22;43233;48.608;8.838;2022-12-07T01:28:54;3.10;82.70
32293;DHT22;43233;48.608;8.838;2022-12-07T01:31:22;3.10;82.50
32293;DHT22;43233;48.608;8.838;2022-12-07T01:33:51;3.10;82.30
32293;DHT22;43233;48.608;8.838;2022-12-07T01:36:20;3.10;82.10
32293;DHT22;43233;48.608;8.838;2022-12-07T01:38:49;3.10;81.70
32293;DHT22;43233;48.608;8.838;2022-12-07T01:41:17;3.10;81.60
32293;DHT22;43233;48.608;8.838;2022-12-07T01:46:57;3.10;81.50
32293;DHT22;43233;48.608;8.838;2022-12-07T01:49:39;3.20;81.30
32293;DHT22;43233;48.608;8.838;2022-12-07T01:54:43;3.20;81.50
32293;DHT22;43233;48.608;8.838;2022-12-07T01:57:09;3.20;81.30
32293;DHT22;43233;48.608;8.838;2022-12-07T01:59:36;3.20;81.30
32293;DHT22;43233;48.608;8.838;2022-12-07T02:02:05;3.20;81.20
32293;DHT22;43233;48.608;8.838;2022-12-07T02:04:32;3.20;81.10
32293;DHT22;43233;48.608;8.838;2022-12-07T02:06:58;3.20;80.70
32293;DHT22;43233;48.608;8.838;2022-12-07T02:09:24;3.10;80.10
32293;DHT22;43233;48.608;8.838;2022-12-07T02:11:50;3.10;79.60
32293;DHT22;43233;48.608;8.838;2022-12-07T02:14:16;3.10;79.30
32293;DHT22;43233;48.608;8.838;2022-12-07T02:16:54;3.00;79.20
32293;DHT22;43233;48.608;8.838;2022-12-07T02:27:47;2.90;79.50
32293;DHT22;43233;48.608;8.838;2022-12-07T02:30:17;2.90;79.70
32293;DHT22;43233;48.608;8.838;2022-12-07T02:35:54;2.80;79.90
32293;DHT22;43233;48.608;8.838;2022-12-07T02:38:44;2.80;80.00
32293;DHT22;43233;48.608;8.838;2022-12-07T02:41:18;2.90;80.30
32293;DHT22;43233;48.608;8.838;2022-12-07T02:43:56;2.80;80.40
32293;DHT22;43233;48.608;8.838;2022-12-07T02:46:32;2.80;80.40
32293;DHT22;43233;48.608;8.838;2022-12-07T02:48:58;2.80;80.50
32293;DHT22;43233;48.608;8.838;2022-12-07T02:51:25;2.80;80.50
32293;DHT22;43233;48.608;8.838;2022-12-07T02:53:51;2.80;79.40
32293;DHT22;43233;48.608;8.838;2022-12-07T02:59:36;2.70;80.10
32293;DHT22;43233;48.608;8.838;2022-12-07T03:08:23;2.50;80.60
32293;DHT22;43233;48.608;8.838;2022-12-07T03:10:59;2.50;81.10
32293;DHT22;43233;48.608;8.838;2022-12-07T03:18:54;2.50;81.60
32293;DHT22;43233;48.608;8.838;2022-12-07T03:21:31;2.60;81.60
32293;DHT22;43233;48.608;8.838;2022-12-07T03:24:00;2.60;81.70
32293;DHT22;43233;48.608;8.838;2022-12-07T03:26:42;2.60;81.80
32293;DHT22;43233;48.608;8.838;2022-12-07T03:29:27;2.50;81.90
32293;DHT22;43233;48.608;8.838;2022-12-07T03:32:13;2.50;82.00
32293;DHT22;43233;48.608;8.838;2022-12-07T03:35:07;2.50;82.00
32293;DHT22;43233;48.608;8.838;2022-12-07T03:37:46;2.50;81.90
32293;DHT22;43233;48.608;8.838;2022-12-07T03:40:26;2.50;82.00
32293;DHT22;43233;48.608;8.838;2022-12-07T03:42:55;2.50;82.10
32293;DHT22;43233;48.608;8.838;2022-12-07T03:45:24;2.50;82.10
32293;DHT22;43233;48.608;8.838;2022-12-07T03:50:41;2.50;81.80
32293;DHT22;43233;48.608;8.838;2022-12-07T03:53:20;2.50;81.70
32293;DHT22;43233;48.608;8.838;2022-12-07T03:55:48;2.40;81.50
32293;DHT22;43233;48.608;8.838;2022-12-07T03:58:17;2.50;81.70
32293;DHT22;43233;48.608;8.838;2022-12-07T04:00:44;2.40;81.50
32293;DHT22;43233;48.608;8.838;2022-12-07T04:03:10;2.40;81.70
32293;DHT22;43233;48.608;8.838;2022-12-07T04:05:36;2.40;81.90
32293;DHT22;43233;48.608;8.838;2022-12-07T04:08:02;2.40;81.80
32293;DHT22;43233;48.608;8.838;2022-12-07T04:10:28;2.40;82.00
32293;DHT22;43233;48.608;8.838;2022-12-07T04:12:54;2.30;82.10
32293;DHT22;43233;48.608;8.838;2022-12-07T04:15:19;2.30;82.30
32293;DHT22;43233;48.608;8.838;2022-12-07T04:17:45;2.30;82.40
32293;DHT22;43233;48.608;8.838;2022-12-07T04:20:11;2.40;82.10
32293;DHT22;43233;48.608;8.838;2022-12-07T04:22:37;2.30;82.00
32293;DHT22;43233;48.608;8.838;2022-12-07T04:25:03;2.30;81.80
32293;DHT22;43233;48.608;8.838;2022-12-07T04:27:29;2.30;82.00
32293;DHT22;43233;48.608;8.838;2022-12-07T04:29:54;2.30;82.00
32293;DHT22;43233;48.608;8.838;2022-12-07T04:32:21;2.30;82.20
32293;DHT22;43233;48.608;8.838;2022-12-07T04:34:48;2.30;81.80
32293;DHT22;43233;48.608;8.838;2022-12-07T04:37:13;2.20;82.30
32293;DHT22;43233;48.608;8.838;2022-12-07T04:39:39;2.20;81.90
32293;DHT22;43233;48.608;8.838;2022-12-07T04:42:05;2.10;82.20
32293;DHT22;43233;48.608;8.838;2022-12-07T04:44:30;2.10;82.70
32293;DHT22;43233;48.608;8.838;2022-12-07T04:46:56;2.10;82.90
32293;DHT22;43233;48.608;8.838;2022-12-07T04:49:23;2.10;82.60
32293;DHT22;43233;48.608;8.838;2022-12-07T04:51:50;2.10;82.40
32293;DHT22;43233;48.608;8.838;2022-12-07T04:54:17;2.20;82.10
32293;DHT22;43233;48.608;8.838;2022-12-07T04:56:43;2.20;80.70
32293;DHT22;43233;48.608;8.838;2022-12-07T04:59:12;2.10;80.90
32293;DHT22;43233;48.608;8.838;2022-12-07T05:01:39;2.20;80.90
32293;DHT22;43233;48.608;8.838;2022-12-07T05:04:05;2.20;80.70
32293;DHT22;43233;48.608;8.838;2022-12-07T05:06:30;2.20;80.60
32293;DHT22;43233;48.608;8.838;2022-12-07T05:08:56;2.20;80.30
32293;DHT22;43233;48.608;8.838;2022-12-07T05:11:22;2.20;80.20
32293;DHT22;43233;48.608;8.838;2022-12-07T05:14:18;2.20;79.80
32293;DHT22;43233;48.608;8.838;2022-12-07T05:16:46;2.10;79.80
32293;DHT22;43233;48.608;8.838;2022-12-07T05:19:13;2.00;80.20
32293;DHT22;43233;48.608;8.838;2022-12-07T05:21:39;2.00;80.80
32293;DHT22;43233;48.608;8.838;2022-12-07T05:24:06;1.90;80.70
32293;DHT22;43233;48.608;8.838;2022-12-07T05:26:32;1.90;80.80
32293;DHT22;43233;48.608;8.838;2022-12-07T05:28:58;1.80;80.70
32293;DHT22;43233;48.608;8.838;2022-12-07T05:31:24;1.80;81.00
32293;DHT22;43233;48.608;8.838;2022-12-07T05:33:50;1.70;80.70
32293;DHT22;43233;48.608;8.838;2022-12-07T05:36:16;1.70;81.00
32293;DHT22;43233;48.608;8.838;2022-12-07T05:38:42;1.70;80.70
32293;DHT22;43233;48.608;8.838;2022-12-07T05:41:08;1.70;80.70
32293;DHT22;43233;48.608;8.838;2022-12-07T05:43:55;1.70;80.80
32293;DHT22;43233;48.608;8.838;2022-12-07T05:46:20;1.60;81.10
32293;DHT22;43233;48.608;8.838;2022-12-07T05:48:46;1.50;81.40
32293;DHT22;43233;48.608;8.838;2022-12-07T05:51:11;1.40;81.80
32293;DHT22;43233;48.608;8.838;2022-12-07T05:53:37;1.40;81.90
32293;DHT22;43233;48.608;8.838;2022-12-07T05:56:02;1.40;82.00
32293;DHT22;43233;48.608;8.838;2022-12-07T05:58:28;1.30;82.50
32293;DHT22;43233;48.608;8.838;2022-12-07T06:01:12;1.20;82.60
32293;DHT22;43233;48.608;8.838;2022-12-07T06:03:38;1.10;83.60
32293;DHT22;43233;48.608;8.838;2022-12-07T06:06:03;1.10;83.60
32293;DHT22;43233;48.608;8.838;2022-12-07T06:08:29;1.00;83.00
32293;DHT22;43233;48.608;8.838;2022-12-07T06:10:54;1.00;83.00
32293;DHT22;43233;48.608;8.838;2022-12-07T06:13:40;1.00;82.20
32293;DHT22;43233;48.608;8.838;2022-12-07T06:16:06;0.90;82.30
32293;DHT22;43233;48.608;8.838;2022-12-07T06:18:31;0.80;82.20
32293;DHT22;43233;48.608;8.838;2022-12-07T06:20:57;0.80;81.80
32293;DHT22;43233;48.608;8.838;2022-12-07T06:23:23;0.80;82.10
32293;DHT22;43233;48.608;8.838;2022-12-07T06:25:48;0.80;82.10
32293;DHT22;43233;48.608;8.838;2022-12-07T06:28:14;0.80;82.50
32293;DHT22;43233;48.608;8.838;2022-12-07T06:30:39;0.80;82.30
32293;DHT22;43233;48.608;8.838;2022-12-07T06:33:05;0.80;82.10
32293;DHT22;43233;48.608;8.838;2022-12-07T06:35:33;0.70;83.00
32293;DHT22;43233;48.608;8.838;2022-12-07T06:37:59;0.70;82.50
32293;DHT22;43233;48.608;8.838;2022-12-07T06:40:24;0.70;82.80
32293;DHT22;43233;48.608;8.838;2022-12-07T06:42:50;0.80;83.20
32293;DHT22;43233;48.608;8.838;2022-12-07T06:45:15;0.70;82.70
32293;DHT22;43233;48.608;8.838;2022-12-07T06:47:41;0.70;83.50
32293;DHT22;43233;48.608;8.838;2022-12-07T06:50:07;0.70;83.80
32293;DHT22;43233;48.608;8.838;2022-12-07T06:52:33;0.80;83.60
32293;DHT22;43233;48.608;8.838;2022-12-07T06:54:59;0.90;83.60
32293;DHT22;43233;48.608;8.838;2022-12-07T06:57:25;0.90;83.40
32293;DHT22;43233;48.608;8.838;2022-12-07T06:59:50;1.00;83.40
32293;DHT22;43233;48.608;8.838;2022-12-07T07:02:16;1.00;83.40
32293;DHT22;43233;48.608;8.838;2022-12-07T07:04:42;1.10;84.20
32293;DHT22;43233;48.608;8.838;2022-12-07T07:07:08;1.10;83.20
32293;DHT22;43233;48.608;8.838;2022-12-07T07:09:33;1.10;82.80
32293;DHT22;43233;48.608;8.838;2022-12-07T07:11:59;1.20;82.60
32293;DHT22;43233;48.608;8.838;2022-12-07T07:14:24;1.20;82.00
32293;DHT22;43233;48.608;8.838;2022-12-07T07:16:50;1.20;81.50
32293;DHT22;43233;48.608;8.838;2022-12-07T07:19:16;1.20;81.30
32293;DHT22;43233;48.608;8.838;2022-12-07T07:21:41;1.30;80.50
32293;DHT22;43233;48.608;8.838;2022-12-07T07:24:07;1.20;79.60
32293;DHT22;43233;48.608;8.838;2022-12-07T07:26:33;1.20;79.50
32293;DHT22;43233;48.608;8.838;2022-12-07T07:28:58;1.20;79.50
32293;DHT22;43233;48.608;8.838;2022-12-07T07:31:24;1.30;79.70
32293;DHT22;43233;48.608;8.838;2022-12-07T07:33:49;1.30;78.80
32293;DHT22;43233;48.608;8.838;2022-12-07T07:36:15;1.30;78.00
32293;DHT22;43233;48.608;8.838;2022-12-07T07:38:41;1.30;78.00
32293;DHT22;43233;48.608;8.838;2022-12-07T07:41:06;1.30;78.20
32293;DHT22;43233;48.608;8.838;2022-12-07T07:43:32;1.30;77.60
32293;DHT22;43233;48.608;8.838;2022-12-07T07:45:58;1.40;77.60
32293;DHT22;43233;48.608;8.838;2022-12-07T07:48:23;1.40;77.60
32293;DHT22;43233;48.608;8.838;2022-12-07T07:50:51;1.40;77.10
32293;DHT22;43233;48.608;8.838;2022-12-07T07:53:16;1.40;77.40
32293;DHT22;43233;48.608;8.838;2022-12-07T07:55:50;1.40;77.40
32293;DHT22;43233;48.608;8.838;2022-12-07T07:58:16;1.50;77.40
32293;DHT22;43233;48.608;8.838;2022-12-07T08:00:41;1.40;77.10
32293;DHT22;43233;48.608;8.838;2022-12-07T08:03:07;1.50;76.90
32293;DHT22;43233;48.608;8.838;2022-12-07T08:05:32;1.50;76.80
32293;DHT22;43233;48.608;8.838;2022-12-07T08:07:58;1.60;76.90
32293;DHT22;43233;48.608;8.838;2022-12-07T08:10:23;1.60;76.20
32293;DHT22;43233;48.608;8.838;2022-12-07T08:12:49;1.60;76.20
32293;DHT22;43233;48.608;8.838;2022-12-07T08:15:33;1.70;76.40
32293;DHT22;43233;48.608;8.838;2022-12-07T08:18:01;1.70;76.30
32293;DHT22;43233;48.608;8.838;2022-12-07T08:20:26;1.60;76.60
32293;DHT22;43233;48.608;8.838;2022-12-07T08:22:54;1.60;77.00
32293;DHT22;43233;48.608;8.838;2022-12-07T08:25:21;1.60;77.50
32293;DHT22;43233;48.608;8.838;2022-12-07T08:27:47;1.60;77.90
32293;DHT22;43233;48.608;8.838;2022-12-07T08:30:13;1.60;78.40
32293;DHT22;43233;48.608;8.838;2022-12-07T08:32:39;1.60;78.50
32293;DHT22;43233;48.608;8.838;2022-12-07T08:35:05;1.70;78.20
32293;DHT22;43233;48.608;8.838;2022-12-07T08:37:31;1.70;77.60
32293;DHT22;43233;48.608;8.838;2022-12-07T08:39:57;1.70;77.00
32293;DHT22;43233;48.608;8.838;2022-12-07T08:42:23;1.80;77.20
32293;DHT22;43233;48.608;8.838;2022-12-07T08:44:53;1.70;77.30
32293;DHT22;43233;48.608;8.838;2022-12-07T08:47:18;1.80;77.40
32293;DHT22;43233;48.608;8.838;2022-12-07T08:49:47;1.80;77.30
32293;DHT22;43233;48.608;8.838;2022-12-07T08:52:15;1.90;77.70
32293;DHT22;43233;48.608;8.838;2022-12-07T08:54:41;1.90;77.80
32293;DHT22;43233;48.608;8.838;2022-12-07T08:57:08;1.90;78.20
32293;DHT22;43233;48.608;8.838;2022-12-07T08:59:36;1.90;78.50
32293;DHT22;43233;48.608;8.838;2022-12-07T09:02:04;2.00;77.60
32293;DHT22;43233;48.608;8.838;2022-12-07T09:04:29;1.90;76.10
32293;DHT22;43233;48.608;8.838;2022-12-07T09:06:55;1.80;75.50
32293;DHT22;43233;48.608;8.838;2022-12-07T09:09:21;1.80;75.20
32293;DHT22;43233;48.608;8.838;2022-12-07T09:11:47;1.80;76.10
32293;DHT22;43233;48.608;8.838;2022-12-07T09:14:13;1.80;76.40
32293;DHT22;43233;48.608;8.838;2022-12-07T09:16:39;1.90;76.50
32293;DHT22;43233;48.608;8.838;2022-12-07T09:19:04;2.00;75.70
32293;DHT22;43233;48.608;8.838;2022-12-07T09:21:30;2.10;76.10
32293;DHT22;43233;48.608;8.838;2022-12-07T09:23:56;2.20;76.30
32293;DHT22;43233;48.608;8.838;2022-12-07T09:26:21;2.30;76.70
32293;DHT22;43233;48.608;8.838;2022-12-07T09:28:47;2.30;76.60
32293;DHT22;43233;48.608;8.838;2022-12-07T09:31:13;2.40;75.90
32293;DHT22;43233;48.608;8.838;2022-12-07T09:33:38;2.50;74.40
32293;DHT22;43233;48.608;8.838;2022-12-07T09:36:04;2.50;72.90
32293;DHT22;43233;48.608;8.838;2022-12-07T09:38:31;2.60;73.00
32293;DHT22;43233;48.608;8.838;2022-12-07T09:41:07;2.60;69.10
32293;DHT22;43233;48.608;8.838;2022-12-07T09:43:34;2.50;69.10
32293;DHT22;43233;48.608;8.838;2022-12-07T09:46:00;2.50;71.40
32293;DHT22;43233;48.608;8.838;2022-12-07T09:48:31;2.50;71.20
32293;DHT22;43233;48.608;8.838;2022-12-07T09:50:59;2.60;71.40
32293;DHT22;43233;48.608;8.838;2022-12-07T09:53:33;2.70;71.10
32293;DHT22;43233;48.608;8.838;2022-12-07T09:55:59;2.80;72.50
32293;DHT22;43233;48.608;8.838;2022-12-07T09:58:28;2.90;73.10
32293;DHT22;43233;48.608;8.838;2022-12-07T10:00:58;2.90;73.90
32293;DHT22;43233;48.608;8.838;2022-12-07T10:03:27;3.10;72.80
32293;DHT22;43233;48.608;8.838;2022-12-07T10:05:54;3.20;72.40
32293;DHT22;43233;48.608;8.838;2022-12-07T10:08:20;3.20;72.00
32293;DHT22;43233;48.608;8.838;2022-12-07T10:10:50;3.30;71.50
32293;DHT22;43233;48.608;8.838;2022-12-07T10:15:59;3.40;71.10
32293;DHT22;43233;48.608;8.838;2022-12-07T10:18:34;3.50;70.70
32293;DHT22;43233;48.608;8.838;2022-12-07T10:23:40;3.40;71.30
32293;DHT22;43233;48.608;8.838;2022-12-07T10:28:50;3.50;71.20
32293;DHT22;43233;48.608;8.838;2022-12-07T10:31:18;3.50;71.00
32293;DHT22;43233;48.608;8.838;2022-12-07T10:33:53;3.50;71.10
32293;DHT22;43233;48.608;8.838;2022-12-07T10:39:14;3.50;70.60
32293;DHT22;43233;48.608;8.838;2022-12-07T10:44:30;3.40;71.00
32293;DHT22;43233;48.608;8.838;2022-12-07T11:03:08;3.70;71.80
32293;DHT22;43233;48.608;8.838;2022-12-07T11:05:54;3.70;71.70
32293;DHT22;43233;48.608;8.838;2022-12-07T11:10:58;3.70;72.60
32293;DHT22;43233;48.608;8.838;2022-12-07T11:16:50;3.80;72.70
32293;DHT22;43233;48.608;8.838;2022-12-07T11:22:43;3.90;73.10
32293;DHT22;43233;48.608;8.838;2022-12-07T11:25:28;4.00;72.20
32293;DHT22;43233;48.608;8.838;2022-12-07T11:33:27;4.10;70.60
32293;DHT22;43233;48.608;8.838;2022-12-07T11:36:25;4.20;70.90
32293;DHT22;43233;48.608;8.838;2022-12-07T11:39:00;4.20;71.20
32293;DHT22;43233;48.608;8.838;2022-12-07T11:41:34;4.20;71.20
32293;DHT22;43233;48.608;8.838;2022-12-07T11:44:06;4.30;71.00
32293;DHT22;43233;48.608;8.838;2022-12-07T11:46:43;4.20;70.30
32293;DHT22;43233;48.608;8.838;2022-12-07T11:49:16;4.20;70.00
32293;DHT22;43233;48.608;8.838;2022-12-07T11:51:45;4.20;70.50
32293;DHT22;43233;48.608;8.838;2022-12-07T11:54:19;4.20;70.90
32293;DHT22;43233;48.608;8.838;2022-12-07T11:56:49;4.10;69.80
32293;DHT22;43233;48.608;8.838;2022-12-07T11:59:40;4.20;70.90
32293;DHT22;43233;48.608;8.838;2022-12-07T12:03:03;4.10;71.40
32293;DHT22;43233;48.608;8.838;2022-12-07T12:05:17;4.10;70.90
32293;DHT22;43233;48.608;8.838;2022-12-07T12:07:44;4.10;71.20
32293;DHT22;43233;48.608;8.838;2022-12-07T12:15:33;4.10;71.10
32293;DHT22;43233;48.608;8.838;2022-12-07T12:23:41;4.10;70.50
32293;DHT22;43233;48.608;8.838;2022-12-07T12:26:18;3.90;71.00
32293;DHT22;43233;48.608;8.838;2022-12-07T12:29:06;3.80;71.40
32293;DHT22;43233;48.608;8.838;2022-12-07T12:31:37;3.80;71.50
32293;DHT22;43233;48.608;8.838;2022-12-07T12:34:39;3.80;72.10
32293;DHT22;43233;48.608;8.838;2022-12-07T12:42:51;3.70;71.70
32293;DHT22;43233;48.608;8.838;2022-12-07T12:45:21;3.70;71.70
32293;DHT22;43233;48.608;8.838;2022-12-07T12:48:04;3.60;71.50
32293;DHT22;43233;48.608;8.838;2022-12-07T12:50:37;3.60;70.70
32293;DHT22;43233;48.608;8.838;2022-12-07T12:53:23;3.60;71.50
32293;DHT22;43233;48.608;8.838;2022-12-07T13:00:47;3.80;73.20
32293;DHT22;43233;48.608;8.838;2022-12-07T13:03:26;3.70;72.50
32293;DHT22;43233;48.608;8.838;2022-12-07T13:09:25;3.70;72.90
32293;DHT22;43233;48.608;8.838;2022-12-07T13:12:04;3.70;72.30
32293;DHT22;43233;48.608;8.838;2022-12-07T13:17:11;3.70;73.80
32293;DHT22;43233;48.608;8.838;2022-12-07T13:19:53;3.70;73.90
32293;DHT22;43233;48.608;8.838;2022-12-07T13:25:07;3.70;73.10
32293;DHT22;43233;48.608;8.838;2022-12-07T13:27:36;3.80;73.20
32293;DHT22;43233;48.608;8.838;2022-12-07T13:30:15;3.80;73.30
32293;DHT22;43233;48.608;8.838;2022-12-07T13:32:41;4.00;74.30
32293;DHT22;43233;48.608;8.838;2022-12-07T13:37:53;4.20;73.80
32293;DHT22;43233;48.608;8.838;2022-12-07T13:40:22;4.30;73.20
32293;DHT22;43233;48.608;8.838;2022-12-07T13:42:48;4.30;71.00
32293;DHT22;43233;48.608;8.838;2022-12-07T13:45:33;4.20;69.70
32293;DHT22;43233;48.608;8.838;2022-12-07T13:50:41;4.00;71.40
32293;DHT22;43233;48.608;8.838;2022-12-07T13:53:12;3.90;71.70
32293;DHT22;43233;48.608;8.838;2022-12-07T13:55:44;3.90;71.20
32293;DHT22;43233;48.608;8.838;2022-12-07T13:58:10;3.80;72.50
32293;DHT22;43233;48.608;8.838;2022-12-07T14:00:36;3.80;73.00
32293;DHT22;43233;48.608;8.838;2022-12-07T14:03:18;3.80;72.40
32293;DHT22;43233;48.608;8.838;2022-12-07T14:05:47;3.70;71.90
32293;DHT22;43233;48.608;8.838;2022-12-07T14:08:30;3.70;71.20
32293;DHT22;43233;48.608;8.838;2022-12-07T14:10:57;3.70;71.80
32293;DHT22;43233;48.608;8.838;2022-12-07T14:13:39;3.70;71.80
32293;DHT22;43233;48.608;8.838;2022-12-07T14:18:46;3.60;71.70
32293;DHT22;43233;48.608;8.838;2022-12-07T14:21:18;3.60;72.10
32293;DHT22;43233;48.608;8.838;2022-12-07T14:23:45;3.60;71.80
32293;DHT22;43233;48.608;8.838;2022-12-07T14:26:18;3.70;71.90
32293;DHT22;43233;48.608;8.838;2022-12-07T14:28:45;3.70;72.40
32293;DHT22;43233;48.608;8.838;2022-12-07T14:33:38;3.80;71.70
32293;DHT22;43233;48.608;8.838;2022-12-07T14:36:04;3.80;70.60
32293;DHT22;43233;48.608;8.838;2022-12-07T14:38:29;3.90;71.20
32293;DHT22;43233;48.608;8.838;2022-12-07T14:40:56;3.90;71.00
32293;DHT22;43233;48.608;8.838;2022-12-07T14:43:41;4.00;70.90
32293;DHT22;43233;48.608;8.838;2022-12-07T14:46:08;4.00;70.60
32293;DHT22;43233;48.608;8.838;2022-12-07T14:48:33;4.10;70.00
32293;DHT22;43233;48.608;8.838;2022-12-07T14:50:59;4.00;69.80
32293;DHT22;43233;48.608;8.838;2022-12-07T14:53:30;4.10;70.10
32293;DHT22;43233;48.608;8.838;2022-12-07T14:55:56;4.00;69.70
32293;DHT22;43233;48.608;8.838;2022-12-07T14:58:22;4.00;69.60
32293;DHT22;43233;48.608;8.838;2022-12-07T15:00:47;4.00;69.80
32293;DHT22;43233;48.608;8.838;2022-12-07T15:03:14;4.00;68.80
32293;DHT22;43233;48.608;8.838;2022-12-07T15:05:40;4.00;69.20
32293;DHT22;43233;48.608;8.838;2022-12-07T15:08:06;4.00;69.50
32293;DHT22;43233;48.608;8.838;2022-12-07T15:10:33;4.00;69.20
32293;DHT22;43233;48.608;8.838;2022-12-07T15:13:00;4.00;69.20
32293;DHT22;43233;48.608;8.838;2022-12-07T15:15:49;4.00;69.60
32293;DHT22;43233;48.608;8.838;2022-12-07T15:18:16;4.00;69.60
32293;DHT22;43233;48.608;8.838;2022-12-07T15:20:42;4.00;69.20
32293;DHT22;43233;48.608;8.838;2022-12-07T15:23:07;3.90;69.00
32293;DHT22;43233;48.608;8.838;2022-12-07T15:25:33;3.90;69.50
32293;DHT22;43233;48.608;8.838;2022-12-07T15:27:59;3.90;69.60
32293;DHT22;43233;48.608;8.838;2022-12-07T15:30:24;3.80;69.50
32293;DHT22;43233;48.608;8.838;2022-12-07T15:32:53;3.80;69.50
32293;DHT22;43233;48.608;8.838;2022-12-07T15:35:19;3.70;70.00
32293;DHT22;43233;48.608;8.838;2022-12-07T15:37:45;3.70;69.90
32293;DHT22;43233;48.608;8.838;2022-12-07T15:40:11;3.70;70.00
32293;DHT22;43233;48.608;8.838;2022-12-07T15:42:37;3.70;70.00
32293;DHT22;43233;48.608;8.838;2022-12-07T15:45:04;3.70;69.80
32293;DHT22;43233;48.608;8.838;2022-12-07T15:47:38;3.60;69.80
32293;DHT22;43233;48.608;8.838;2022-12-07T15:50:05;3.60;70.20
32293;DHT22;43233;48.608;8.838;2022-12-07T15:52:31;3.60;70.10
32293;DHT22;43233;48.608;8.838;2022-12-07T15:54:57;3.50;70.70
32293;DHT22;43233;48.608;8.838;2022-12-07T15:57:25;3.50;70.60
32293;DHT22;43233;48.608;8.838;2022-12-07T15:59:51;3.60;70.30
32293;DHT22;43233;48.608;8.838;2022-12-07T16:02:17;3.50;70.40
32293;DHT22;43233;48.608;8.838;2022-12-07T16:04:42;3.60;70.40
32293;DHT22;43233;48.608;8.838;2022-12-07T16:07:09;3.50;71.00
32293;DHT22;43233;48.608;8.838;2022-12-07T16:09:37;3.40;70.60
32293;DHT22;43233;48.608;8.838;2022-12-07T16:12:03;3.40;70.80
32293;DHT22;43233;48.608;8.838;2022-12-07T16:14:29;3.40;70.80
32293;DHT22;43233;48.608;8.838;2022-12-07T16:16:54;3.40;70.60
32293;DHT22;43233;48.608;8.838;2022-12-07T16:19:20;3.30;70.70
32293;DHT22;43233;48.608;8.838;2022-12-07T16:21:46;3.30;70.90
32293;DHT22;43233;48.608;8.838;2022-12-07T16:24:12;3.30;71.00
32293;DHT22;43233;48.608;8.838;2022-12-07T16:26:40;3.20;71.00
32293;DHT22;43233;48.608;8.838;2022-12-07T16:29:06;3.20;71.00
32293;DHT22;43233;48.608;8.838;2022-12-07T16:31:32;3.20;71.20
32293;DHT22;43233;48.608;8.838;2022-12-07T16:33:58;3.20;71.30
32293;DHT22;43233;48.608;8.838;2022-12-07T16:36:24;3.20;71.30
32293;DHT22;43233;48.608;8.838;2022-12-07T16:38:53;3.10;71.40
32293;DHT22;43233;48.608;8.838;2022-12-07T16:41:18;3.10;71.50
32293;DHT22;43233;48.608;8.838;2022-12-07T16:43:44;3.10;71.50
32293;DHT22;43233;48.608;8.838;2022-12-07T16:46:10;3.10;71.20
32293;DHT22;43233;48.608;8.838;2022-12-07T16:48:39;3.10;71.10
32293;DHT22;43233;48.608;8.838;2022-12-07T16:51:06;3.00;70.90
32293;DHT22;43233;48.608;8.838;2022-12-07T16:53:34;3.00;71.20
32293;DHT22;43233;48.608;8.838;2022-12-07T16:56:00;2.90;71.70
32293;DHT22;43233;48.608;8.838;2022-12-07T16:58:26;2.90;71.70
32293;DHT22;43233;48.608;8.838;2022-12-07T17:00:51;2.90;71.50
32293;DHT22;43233;48.608;8.838;2022-12-07T17:03:17;2.90;71.50
32293;DHT22;43233;48.608;8.838;2022-12-07T17:05:44;2.80;71.50
32293;DHT22;43233;48.608;8.838;2022-12-07T17:08:10;2.80;71.60
32293;DHT22;43233;48.608;8.838;2022-12-07T17:10:39;2.80;71.40
32293;DHT22;43233;48.608;8.838;2022-12-07T17:13:05;2.80;71.70
32293;DHT22;43233;48.608;8.838;2022-12-07T17:16:05;2.80;71.70
32293;DHT22;43233;48.608;8.838;2022-12-07T17:18:33;2.80;71.70
32293;DHT22;43233;48.608;8.838;2022-12-07T17:21:07;2.70;71.70
32293;DHT22;43233;48.608;8.838;2022-12-07T17:23:35;2.70;71.90
32293;DHT22;43233;48.608;8.838;2022-12-07T17:28:30;2.70;72.10
32293;DHT22;43233;48.608;8.838;2022-12-07T17:30:55;2.70;72.10
32293;DHT22;43233;48.608;8.838;2022-12-07T17:33:21;2.70;72.00
32293;DHT22;43233;48.608;8.838;2022-12-07T17:35:47;2.70;71.50
32293;DHT22;43233;48.608;8.838;2022-12-07T17:38:13;2.70;71.50
32293;DHT22;43233;48.608;8.838;2022-12-07T17:40:38;2.70;71.40
32293;DHT22;43233;48.608;8.838;2022-12-07T17:43:04;2.70;71.10
32293;DHT22;43233;48.608;8.838;2022-12-07T17:45:30;2.60;70.90
32293;DHT22;43233;48.608;8.838;2022-12-07T17:47:55;2.60;70.90
32293;DHT22;43233;48.608;8.838;2022-12-07T17:50:21;2.60;71.00
32293;DHT22;43233;48.608;8.838;2022-12-07T17:53:09;2.60;71.10
32293;DHT22;43233;48.608;8.838;2022-12-07T17:55:35;2.60;71.20
32293;DHT22;43233;48.608;8.838;2022-12-07T17:58:01;2.50;71.20
32293;DHT22;43233;48.608;8.838;2022-12-07T18:00:26;2.50;71.20